Time;durP1;ratioP1;P1;durP2;ratioP2;P2;SDS_P1;SDS_P2;PMS_P1;PMS_P2;Temp;Humidity;BMP_temperature;BMP_pressure;BME280_temperature;BME280_humidity;BME280_pressure;Samples;Min_cycle;Max_cycle;Signal;HPM_P1;HPM_P2
2023/03/07 04:57:36;;;;;;;10.02;7.63;;;-1.30;99.90;;;;;;5064579;23;20317;-80
2023/03/07 05:00:03;;;;;;;11.05;7.40;;;-1.30;99.90;;;;;;5005327;28;20666;-78
2023/03/07 05:02:30;;;;;;;7.40;5.85;;;-1.30;99.90;;;;;;5004569;28;20316;-79
2023/03/07 05:04:57;;;;;;;9.10;6.20;;;-1.30;99.90;;;;;;5004141;28;20285;-77
2023/03/07 05:07:23;;;;;;;8.50;5.85;;;-1.30;99.90;;;;;;5003747;28;20230;-77
2023/03/07 05:09:50;;;;;;;8.55;6.63;;;-1.40;99.90;;;;;;5025320;23;20436;-76
2023/03/07 05:12:17;;;;;;;6.25;5.20;;;-1.30;99.90;;;;;;4994606;28;20187;-75
2023/03/07 05:14:45;;;;;;;7.80;6.22;;;-1.40;99.90;;;;;;4994708;28;20210;-76
2023/03/07 05:17:11;;;;;;;8.48;5.35;;;-1.40;99.90;;;;;;4994589;28;20206;-76
2023/03/07 05:19:38;;;;;;;10.13;6.10;;;-1.50;99.90;;;;;;4994229;28;20219;-76
2023/03/07 05:22:05;;;;;;;10.63;6.32;;;-1.50;99.90;;;;;;4994100;28;20210;-75
2023/03/07 05:24:31;;;;;;;9.63;6.35;;;-1.50;99.90;;;;;;4994088;28;20218;-76
2023/03/07 05:26:58;;;;;;;7.85;6.43;;;-1.50;99.90;;;;;;4993818;28;20716;-76
2023/03/07 05:29:25;;;;;;;5.55;4.97;;;-1.50;99.90;;;;;;4994126;28;20203;-76
2023/03/07 05:31:53;;;;;;;5.75;5.15;;;-1.50;99.90;;;;;;4994068;28;20233;-76
2023/03/07 05:34:20;;;;;;;7.47;5.82;;;-1.60;99.90;;;;;;4994044;28;20198;-73
2023/03/07 05:36:47;;;;;;;6.82;5.65;;;-1.60;99.90;;;;;;4994027;28;20210;-73
2023/03/07 05:39:15;;;;;;;8.50;6.03;;;-1.60;99.90;;;;;;4993744;28;20728;-74
2023/03/07 05:41:41;;;;;;;6.70;5.75;;;-1.60;99.90;;;;;;4993636;28;20660;-75
2023/03/07 05:44:08;;;;;;;6.63;5.72;;;-1.60;99.90;;;;;;4993971;28;20218;-73
2023/03/07 05:46:35;;;;;;;7.70;6.00;;;-1.70;99.90;;;;;;4994050;28;20281;-76
2023/03/07 05:49:03;;;;;;;7.85;6.05;;;-1.70;99.90;;;;;;4994012;28;20211;-77
2023/03/07 05:51:30;;;;;;;8.18;5.90;;;-1.70;99.90;;;;;;4994244;28;20610;-78
2023/03/07 05:53:56;;;;;;;6.72;5.53;;;-1.70;99.90;;;;;;4994131;28;20206;-77
2023/03/07 05:56:23;;;;;;;7.82;6.07;;;-1.70;99.90;;;;;;4994302;28;20203;-78
2023/03/07 05:58:50;;;;;;;7.60;5.60;;;-1.70;99.90;;;;;;4994117;28;20230;-77
2023/03/07 06:01:16;;;;;;;7.28;5.80;;;-1.80;99.90;;;;;;4997269;28;20218;-77
2023/03/07 06:03:43;;;;;;;6.53;5.13;;;-1.80;99.90;;;;;;4997351;28;20720;-77
2023/03/07 06:06:12;;;;;;;9.88;5.97;;;-1.80;99.90;;;;;;4997601;28;20199;-77
2023/03/07 06:08:39;;;;;;;7.20;5.75;;;-1.80;99.90;;;;;;4997616;28;20198;-77
2023/03/07 06:11:05;;;;;;;6.03;5.40;;;-1.80;99.90;;;;;;4997144;28;20237;-77
2023/03/07 06:13:32;;;;;;;7.13;5.60;;;-1.80;99.90;;;;;;4997400;28;20198;-77
2023/03/07 15:45:32;;;;;;;10.43;6.05;;;5.50;47.00;;;;;;5088050;23;20681;-77
2023/03/07 15:48:09;;;;;;;8.18;5.18;;;5.50;47.20;;;;;;4998944;28;20218;-77
2023/03/07 15:50:37;;;;;;;8.73;5.85;;;5.50;47.20;;;;;;5001215;28;20210;-77
2023/03/07 15:53:08;;;;;;;9.02;4.85;;;5.40;47.60;;;;;;5002161;28;20245;-77
2023/03/07 15:55:38;;;;;;;6.85;5.00;;;5.20;47.70;;;;;;5002021;28;20249;-76
2023/03/07 15:58:12;;;;;;;5.80;5.10;;;5.20;48.10;;;;;;4997376;28;20654;-76
2023/03/07 16:00:42;;;;;;;6.75;4.75;;;5.20;48.50;;;;;;5027559;23;20221;-77
2023/03/07 16:03:22;;;;;;;6.40;4.72;;;5.10;49.00;;;;;;5012595;28;20213;-77
2023/03/07 16:05:49;;;;;;;8.15;5.90;;;5.10;49.00;;;;;;5010891;28;20530;-78
2023/03/07 16:08:18;;;;;;;7.53;5.38;;;5.00;49.20;;;;;;5008214;28;20202;-78
2023/03/07 16:10:50;;;;;;;6.32;5.03;;;5.00;49.40;;;;;;4997603;28;20260;-78
2023/03/07 16:13:20;;;;;;;6.20;4.75;;;5.00;49.70;;;;;;4997484;28;20623;-78
2023/03/07 16:15:58;;;;;;;6.80;5.45;;;4.90;50.20;;;;;;4998115;28;20209;-79
2023/03/07 16:18:28;;;;;;;7.28;5.20;;;4.80;50.30;;;;;;4999554;28;20194;-78
2023/03/07 16:20:56;;;;;;;8.52;5.85;;;4.80;50.60;;;;;;5007862;28;20255;-80
2023/03/07 16:23:23;;;;;;;7.30;6.10;;;4.70;50.80;;;;;;5006485;28;20227;-79
2023/03/07 16:25:50;;;;;;;7.75;6.00;;;4.60;51.20;;;;;;5014239;28;20641;-80
2023/03/07 16:28:17;;;;;;;8.23;5.93;;;4.60;51.90;;;;;;5016116;28;20206;-80
2023/03/07 16:30:45;;;;;;;9.88;6.18;;;4.50;51.60;;;;;;5010322;28;20215;-80
2023/03/07 16:33:14;;;;;;;8.60;6.68;;;4.40;51.70;;;;;;5005517;28;20194;-81
2023/03/07 16:35:41;;;;;;;10.80;5.95;;;4.30;52.10;;;;;;5004622;28;20214;-80
2023/03/07 16:38:08;;;;;;;7.05;5.15;;;4.30;52.50;;;;;;5002989;28;20213;-80
2023/03/07 16:40:39;;;;;;;9.18;5.63;;;4.10;52.40;;;;;;5003142;28;20559;-80
2023/03/07 16:43:21;;;;;;;8.02;5.70;;;4.10;53.10;;;;;;5004279;28;20208;-80
2023/03/07 16:45:48;;;;;;;7.57;5.30;;;4.00;53.50;;;;;;5009473;28;20183;-80
2023/03/07 16:48:17;;;;;;;5.88;4.63;;;3.90;53.50;;;;;;5000409;28;20532;-80
2023/03/07 16:50:43;;;;;;;5.53;4.85;;;3.90;53.80;;;;;;4995437;28;20230;-81
2023/03/07 16:53:10;;;;;;;4.85;4.32;;;3.80;54.00;;;;;;4995212;28;20209;-81
2023/03/07 16:55:38;;;;;;;6.35;4.75;;;3.70;53.90;;;;;;4995077;28;20210;-80
2023/03/07 16:58:06;;;;;;;5.28;4.22;;;3.60;54.60;;;;;;4995284;28;20203;-81
2023/03/07 17:00:33;;;;;;;4.72;4.28;;;3.60;55.30;;;;;;4994345;28;20230;-80
2023/03/07 17:03:02;;;;;;;5.90;3.97;;;3.50;55.60;;;;;;4997035;28;20210;-82
2023/03/07 17:05:30;;;;;;;4.93;4.32;;;3.40;56.30;;;;;;4997230;28;20219;-83
2023/03/07 17:07:58;;;;;;;4.78;4.30;;;3.20;57.00;;;;;;4997950;28;20202;-82
2023/03/07 17:10:26;;;;;;;4.20;3.80;;;3.20;57.50;;;;;;4996253;28;20222;-83
2023/03/07 17:12:54;;;;;;;5.00;4.47;;;3.10;58.00;;;;;;4995749;28;20206;-82
2023/03/07 17:15:25;;;;;;;5.28;4.50;;;3.00;58.90;;;;;;4999254;28;20381;-81
2023/03/07 17:17:52;;;;;;;7.57;5.35;;;2.90;60.00;;;;;;5001262;28;20270;-81
2023/03/07 17:20:20;;;;;;;8.73;5.40;;;2.80;62.80;;;;;;5007482;28;20229;-81
2023/03/07 17:22:49;;;;;;;5.50;4.93;;;2.80;63.20;;;;;;5009418;28;20209;-81
2023/03/07 17:25:16;;;;;;;11.80;6.90;;;2.60;63.90;;;;;;5008149;28;20285;-81
2023/03/07 17:27:47;;;;;;;9.48;5.47;;;2.60;65.60;;;;;;5008591;28;20203;-81
2023/03/07 17:30:19;;;;;;;10.15;6.40;;;2.60;65.60;;;;;;5008783;28;20694;-81
2023/03/07 17:32:47;;;;;;;9.68;6.13;;;2.50;65.90;;;;;;5009521;28;20187;-81
2023/03/07 17:35:14;;;;;;;9.00;5.90;;;2.50;66.10;;;;;;5010756;28;20202;-81
2023/03/07 17:37:41;;;;;;;8.52;5.95;;;2.50;66.30;;;;;;5007711;28;20570;-81
2023/03/07 17:40:11;;;;;;;8.05;6.40;;;2.50;66.60;;;;;;5008156;28;20222;-81
2023/03/07 17:42:39;;;;;;;8.13;5.43;;;2.50;68.50;;;;;;5010112;28;20216;-81
2023/03/07 17:45:07;;;;;;;8.82;5.45;;;2.40;67.60;;;;;;5009157;28;20241;-81
2023/03/07 17:47:34;;;;;;;7.88;6.15;;;2.50;68.00;;;;;;5008177;28;20205;-80
2023/03/07 17:50:04;;;;;;;9.38;6.68;;;2.50;69.00;;;;;;5004046;28;20229;-78
2023/03/07 17:52:31;;;;;;;8.30;5.65;;;2.60;69.50;;;;;;4994890;28;20207;-77
2023/03/07 17:54:58;;;;;;;8.90;5.55;;;2.60;68.90;;;;;;4994863;28;20199;-77
2023/03/07 17:57:27;;;;;;;8.82;6.88;;;2.70;68.20;;;;;;5000007;28;20252;-77
2023/03/07 17:59:53;;;;;;;9.55;5.97;;;2.80;67.60;;;;;;4999874;28;20238;-78
2023/03/07 18:02:20;;;;;;;10.13;5.55;;;2.90;67.10;;;;;;5000776;28;20202;-77
2023/03/07 18:04:47;;;;;;;8.93;5.68;;;2.90;66.60;;;;;;5000816;28;20237;-77
2023/03/07 18:07:17;;;;;;;10.00;6.00;;;3.00;66.50;;;;;;4999589;28;20202;-76
2023/03/07 18:09:43;;;;;;;8.27;5.40;;;3.00;66.00;;;;;;4997897;28;20254;-76
2023/03/07 18:12:10;;;;;;;11.50;6.70;;;3.00;66.10;;;;;;4997817;28;20297;-76
2023/03/07 18:14:38;;;;;;;11.02;6.35;;;3.00;65.60;;;;;;4997420;28;20584;-76
2023/03/07 18:17:05;;;;;;;8.07;5.63;;;3.10;64.90;;;;;;4997495;28;20207;-75
2023/03/07 18:19:33;;;;;;;10.43;6.32;;;3.10;64.50;;;;;;4997748;28;20235;-76
2023/03/07 18:21:59;;;;;;;10.25;7.00;;;3.10;63.70;;;;;;4997599;28;20666;-76
2023/03/07 18:24:28;;;;;;;5.97;5.28;;;3.10;63.10;;;;;;4997527;28;20226;-76
2023/03/07 18:26:57;;;;;;;8.88;5.70;;;3.10;63.10;;;;;;4997461;28;20257;-76
2023/03/07 18:29:25;;;;;;;7.03;5.30;;;3.10;63.00;;;;;;4997396;28;20230;-76
2023/03/07 18:31:53;;;;;;;9.68;6.03;;;3.10;63.00;;;;;;4997309;28;20218;-77
2023/03/07 18:34:21;;;;;;;8.55;6.38;;;3.10;63.10;;;;;;4997527;28;20203;-76
2023/03/07 18:36:50;;;;;;;12.93;6.43;;;3.10;62.50;;;;;;4998102;28;20810;-77
2023/03/07 18:39:17;;;;;;;9.55;5.05;;;3.10;62.10;;;;;;4997010;28;20230;-76
2023/03/07 18:41:43;;;;;;;9.52;5.78;;;3.10;62.30;;;;;;4997321;28;20198;-76
2023/03/07 18:44:10;;;;;;;8.88;6.07;;;3.00;61.90;;;;;;4996876;28;20223;-76
2023/03/07 18:46:37;;;;;;;9.30;6.25;;;3.00;62.40;;;;;;4999604;28;20207;-79
2023/03/07 18:49:05;;;;;;;8.30;5.70;;;3.00;63.00;;;;;;5001298;28;20233;-79
2023/03/07 18:51:32;;;;;;;7.72;5.90;;;2.90;62.90;;;;;;5000015;28;20199;-78
2023/03/07 18:54:00;;;;;;;8.40;5.72;;;2.90;63.10;;;;;;4999106;28;20187;-79
2023/03/07 18:56:28;;;;;;;8.38;5.93;;;3.00;63.70;;;;;;4999799;28;20206;-79
2023/03/07 18:58:57;;;;;;;7.45;5.40;;;2.90;63.80;;;;;;4998934;28;20234;-78
2023/03/07 19:01:26;;;;;;;10.27;6.18;;;3.00;63.90;;;;;;4997550;28;20593;-77
2023/03/07 19:03:54;;;;;;;9.60;5.90;;;2.90;64.30;;;;;;4996911;28;20207;-79
2023/03/07 19:06:24;;;;;;;7.35;4.88;;;3.00;64.60;;;;;;4998413;28;20203;-79
2023/03/07 19:08:51;;;;;;;7.05;4.50;;;3.00;64.80;;;;;;4996673;28;20234;-76
2023/03/07 19:11:18;;;;;;;8.38;5.60;;;2.90;64.90;;;;;;4996381;28;20206;-77
2023/03/07 19:13:45;;;;;;;8.60;5.55;;;2.90;65.20;;;;;;4996128;28;20655;-77
2023/03/07 19:16:15;;;;;;;8.30;5.63;;;2.90;65.30;;;;;;4996387;28;20199;-77
2023/03/07 19:18:42;;;;;;;7.20;5.93;;;3.00;65.40;;;;;;4996294;28;20207;-77
2023/03/07 19:21:11;;;;;;;7.43;5.65;;;2.90;65.40;;;;;;4996512;28;20234;-77
2023/03/07 19:23:39;;;;;;;8.80;5.53;;;2.90;65.90;;;;;;4997918;28;20198;-77
2023/03/07 19:26:07;;;;;;;7.53;5.22;;;2.80;66.70;;;;;;4997266;28;20234;-77
2023/03/07 19:28:34;;;;;;;7.28;5.38;;;2.90;67.10;;;;;;4997295;28;20203;-77
2023/03/07 19:31:07;;;;;;;7.70;5.53;;;2.80;67.90;;;;;;4997283;28;20199;-76
2023/03/07 19:33:35;;;;;;;7.78;5.63;;;2.80;68.40;;;;;;5004073;28;20234;-77
2023/03/07 19:36:04;;;;;;;7.43;5.38;;;2.80;68.70;;;;;;5005127;28;20202;-76
2023/03/07 19:38:30;;;;;;;7.15;5.55;;;2.80;69.60;;;;;;5003156;28;20210;-76
2023/03/07 19:40:59;;;;;;;7.40;5.40;;;2.80;69.60;;;;;;4995957;28;20570;-76
2023/03/07 19:43:26;;;;;;;6.50;5.22;;;2.80;70.30;;;;;;4995947;28;20213;-76
2023/03/07 19:45:54;;;;;;;8.80;5.93;;;2.80;70.50;;;;;;4995575;28;20739;-76
2023/03/07 19:48:21;;;;;;;8.52;6.15;;;2.80;71.20;;;;;;4995984;28;20293;-76
2023/03/07 19:50:48;;;;;;;7.85;5.85;;;2.70;71.80;;;;;;4996106;28;20222;-77
2023/03/07 19:53:15;;;;;;;7.03;5.95;;;2.70;72.70;;;;;;5001278;28;20716;-77
2023/03/07 19:55:41;;;;;;;7.40;5.72;;;2.70;73.20;;;;;;5000932;28;20199;-77
2023/03/07 19:58:09;;;;;;;8.13;5.75;;;2.70;74.00;;;;;;4999604;28;20669;-76
2023/03/07 20:00:38;;;;;;;8.88;6.00;;;2.60;74.70;;;;;;5000459;28;20230;-77
2023/03/07 20:03:05;;;;;;;8.40;5.60;;;2.60;75.00;;;;;;4996701;28;20198;-78
2023/03/07 20:05:31;;;;;;;7.15;5.72;;;2.60;76.20;;;;;;4997201;28;20218;-78
2023/03/07 20:07:58;;;;;;;13.73;6.47;;;2.50;76.80;;;;;;4996546;28;20210;-78
2023/03/07 20:10:25;;;;;;;14.02;6.60;;;2.50;77.80;;;;;;4996013;28;20230;-78
2023/03/07 20:12:53;;;;;;;9.75;5.55;;;2.50;78.70;;;;;;4996608;28;20210;-78
2023/03/07 20:15:21;;;;;;;8.65;6.15;;;2.50;79.40;;;;;;4996885;28;20596;-79
2023/03/07 20:17:48;;;;;;;8.02;6.55;;;2.40;80.60;;;;;;4998409;28;20198;-79
2023/03/07 20:20:15;;;;;;;8.45;6.47;;;2.40;81.20;;;;;;4995710;28;20223;-78
2023/03/07 20:22:42;;;;;;;11.45;6.63;;;2.30;82.60;;;;;;5005336;28;20203;-78
2023/03/07 20:25:09;;;;;;;8.60;6.32;;;2.20;82.60;;;;;;5008617;28;20219;-78
2023/03/07 20:27:36;;;;;;;9.50;6.25;;;2.20;84.00;;;;;;5012085;28;20202;-78
2023/03/07 20:30:03;;;;;;;9.52;7.07;;;2.10;84.30;;;;;;5011512;28;20223;-78
2023/03/07 20:32:31;;;;;;;11.38;6.85;;;2.00;84.80;;;;;;5003010;28;20202;-79
2023/03/07 20:35:02;;;;;;;8.70;6.63;;;1.90;86.60;;;;;;5000150;28;20202;-79
2023/03/07 20:37:31;;;;;;;10.52;6.82;;;1.90;87.30;;;;;;5001126;28;20559;-80
2023/03/07 20:39:58;;;;;;;9.18;6.00;;;1.80;88.20;;;;;;4999513;28;20219;-79
2023/03/07 20:42:24;;;;;;;8.75;6.30;;;1.80;89.00;;;;;;4999110;28;20688;-79
2023/03/07 20:44:51;;;;;;;10.30;7.45;;;1.80;90.20;;;;;;4998621;28;20301;-79
2023/03/07 20:47:18;;;;;;;9.82;6.13;;;1.70;91.30;;;;;;4997292;28;20206;-78
2023/03/07 20:49:46;;;;;;;9.70;6.50;;;1.70;91.50;;;;;;4999162;28;20226;-78
2023/03/07 20:52:13;;;;;;;12.13;6.70;;;1.70;91.90;;;;;;4998247;28;20203;-77
2023/03/07 20:54:40;;;;;;;9.25;6.15;;;1.70;92.00;;;;;;4996779;28;20674;-78
2023/03/07 20:57:07;;;;;;;9.70;6.35;;;1.60;92.00;;;;;;4995883;28;20245;-76
2023/03/07 20:59:33;;;;;;;9.15;6.65;;;1.60;92.20;;;;;;4994698;28;20234;-77
2023/03/07 21:02:00;;;;;;;12.27;7.18;;;1.60;92.10;;;;;;4994849;28;20203;-78
2023/03/07 21:04:27;;;;;;;12.13;6.90;;;1.60;92.00;;;;;;4995473;28;20210;-77
2023/03/07 21:06:55;;;;;;;11.20;6.43;;;1.50;91.60;;;;;;4995540;28;20218;-77
2023/03/07 21:09:22;;;;;;;10.68;6.82;;;1.50;91.70;;;;;;4995321;28;20253;-78
2023/03/07 21:11:49;;;;;;;9.50;6.65;;;1.50;91.90;;;;;;4994952;28;20547;-77
2023/03/07 21:14:17;;;;;;;8.70;5.80;;;1.50;91.50;;;;;;4994577;28;20241;-76
2023/03/07 21:16:44;;;;;;;9.98;6.47;;;1.50;91.60;;;;;;4994833;28;20318;-76
2023/03/07 21:19:12;;;;;;;8.85;5.40;;;1.50;91.40;;;;;;4994290;28;20226;-76
2023/03/07 21:21:39;;;;;;;8.15;6.10;;;1.50;91.90;;;;;;4994923;28;20214;-76
2023/03/07 21:24:08;;;;;;;7.65;5.97;;;1.50;92.00;;;;;;4994460;28;20202;-76
2023/03/07 21:26:36;;;;;;;11.80;6.95;;;1.40;92.30;;;;;;4994489;28;20749;-76
